الصفحة الرئيسية
METAR-TAF:

METAR-TAF

مطار :

Nowra, أستراليا

دائرة عرض: 34-57S, خط طول: 150-32E, ارتفاع: 122 متر

مراقبة الطقس الحالي

تاريخ ووقت الإصدار 56 دقيقة قبل الساعة 23:00UTC
ريح 6 عقدة من الجنوب
درجة الحرارة 19°درجة مئوية
الرطوبة 60%
ضغط 1016 hPa
الرؤية 10 كم أو أكثر
غيوم مفككة على ارتفاع 3200 قدم

METAR: YSNW 102300Z 19006KT 9999 BKN032 19/11 Q1016 NOSIG

زمن: 10:56 (23:56 UTC)


TAF: مفقودة

أرصاد الطقس والتوقعات من أكثر من 4000 مطار (تقارير الطقس للمطار METAR والتنبؤ بالطقس بالمطارTAF).

المحطات المتاحة هي النقط الصفراء والحمراء على الخريطة.

حرك المؤشر فوق النقطة لمعرفة اسم المحطة.

ثم انقر لمعرفة أرصاد وتوقعات الطقس.

لتغيير الخارطة: اضغط على الأزرار الخضراء مع رمز الصليب الأسود للتكبير. على الزر الأخضر مع شرطة للتصغير، أو على الأسهم الخضراء للخرائط المجاورة.


METAR-TAF: